< < Back
Terminal Aerodrome Forecast


Current Version              Previous Versions:   1  2  3  4  5  6  7  8  9  

Terminal Aerodrome Forecast

757
FTUS42 KCHS 191253 AAA
TAFSAV
TAF AMD
KSAV 191253Z 1913/2012 17005KT 2SM RA BR BKN007 OVC030
     FM191430 17010KT 5SM -RA BR SCT005 BKN008
     FM191530 17010KT P6SM SCT015 BKN035
      TEMPO 1920/1924 2SM +TSRA BR SCT008 BKN015CB
     FM200000 21006KT P6SM SCT015 BKN120=

Latest METAR

894
SAUS80 KWBC 191500 RRC
MTRSAV
METAR KSAV 191453Z 13007KT 10SM SCT005 SCT060 BKN130 OVC200 24/22 A2987
RMK AO2 SLP114 60020 T02390217 56021


USA.gov is the U.S. government's official web portal to all federal, state and local government web resources and services.